sensor_id;sensor_type;location;lat;lon;timestamp;P1;durP1;ratioP1;P2;durP2;ratioP2
19810;SDS011;10065;49.632;8.346;2023-06-10T00:00:59;13.95;;;9.27;;
19810;SDS011;10065;49.632;8.346;2023-06-10T00:03:27;10.43;;;8.02;;
19810;SDS011;10065;49.632;8.346;2023-06-10T00:05:55;12.65;;;7.72;;
19810;SDS011;10065;49.632;8.346;2023-06-10T00:08:23;10.68;;;7.90;;
19810;SDS011;10065;49.632;8.346;2023-06-10T00:10:51;10.85;;;8.07;;
19810;SDS011;10065;49.632;8.346;2023-06-10T00:13:20;9.02;;;8.13;;
19810;SDS011;10065;49.632;8.346;2023-06-10T00:15:47;12.57;;;8.07;;
19810;SDS011;10065;49.632;8.346;2023-06-10T00:18:15;12.75;;;8.82;;
19810;SDS011;10065;49.632;8.346;2023-06-10T00:20:43;9.40;;;7.50;;
19810;SDS011;10065;49.632;8.346;2023-06-10T00:23:11;9.30;;;7.82;;
19810;SDS011;10065;49.632;8.346;2023-06-10T00:25:39;11.43;;;7.78;;
19810;SDS011;10065;49.632;8.346;2023-06-10T00:28:07;9.75;;;8.15;;
19810;SDS011;10065;49.632;8.346;2023-06-10T00:30:36;10.43;;;8.27;;
19810;SDS011;10065;49.632;8.346;2023-06-10T00:33:04;9.50;;;8.13;;
19810;SDS011;10065;49.632;8.346;2023-06-10T00:35:32;9.87;;;8.27;;
19810;SDS011;10065;49.632;8.346;2023-06-10T00:37:59;11.35;;;8.23;;
19810;SDS011;10065;49.632;8.346;2023-06-10T00:40:27;9.73;;;8.27;;
19810;SDS011;10065;49.632;8.346;2023-06-10T00:42:55;14.63;;;8.85;;
19810;SDS011;10065;49.632;8.346;2023-06-10T00:45:23;13.88;;;8.15;;
19810;SDS011;10065;49.632;8.346;2023-06-10T00:47:52;9.50;;;7.77;;
19810;SDS011;10065;49.632;8.346;2023-06-10T00:50:20;10.03;;;8.20;;
19810;SDS011;10065;49.632;8.346;2023-06-10T00:52:48;12.80;;;8.43;;
19810;SDS011;10065;49.632;8.346;2023-06-10T00:55:20;10.95;;;8.18;;
19810;SDS011;10065;49.632;8.346;2023-06-10T00:57:49;9.57;;;8.13;;
19810;SDS011;10065;49.632;8.346;2023-06-10T01:00:18;10.80;;;8.03;;
19810;SDS011;10065;49.632;8.346;2023-06-10T01:02:46;9.17;;;7.87;;
19810;SDS011;10065;49.632;8.346;2023-06-10T01:05:17;11.57;;;9.37;;
19810;SDS011;10065;49.632;8.346;2023-06-10T01:07:47;10.20;;;8.30;;
19810;SDS011;10065;49.632;8.346;2023-06-10T01:10:29;10.37;;;8.43;;
19810;SDS011;10065;49.632;8.346;2023-06-10T01:13:01;13.23;;;9.07;;
19810;SDS011;10065;49.632;8.346;2023-06-10T01:15:30;10.10;;;8.40;;
19810;SDS011;10065;49.632;8.346;2023-06-10T01:17:59;11.20;;;9.03;;
19810;SDS011;10065;49.632;8.346;2023-06-10T01:20:30;12.33;;;8.87;;
19810;SDS011;10065;49.632;8.346;2023-06-10T01:23:01;9.70;;;8.40;;
19810;SDS011;10065;49.632;8.346;2023-06-10T01:25:30;9.73;;;8.13;;
19810;SDS011;10065;49.632;8.346;2023-06-10T01:28:01;11.13;;;8.77;;
19810;SDS011;10065;49.632;8.346;2023-06-10T01:30:36;9.60;;;8.03;;
19810;SDS011;10065;49.632;8.346;2023-06-10T01:33:10;11.57;;;8.47;;
19810;SDS011;10065;49.632;8.346;2023-06-10T01:35:40;9.33;;;8.27;;
19810;SDS011;10065;49.632;8.346;2023-06-10T01:38:12;10.00;;;8.83;;
19810;SDS011;10065;49.632;8.346;2023-06-10T01:40:41;10.77;;;8.00;;
19810;SDS011;10065;49.632;8.346;2023-06-10T01:43:10;12.80;;;8.10;;
19810;SDS011;10065;49.632;8.346;2023-06-10T01:45:37;12.87;;;8.77;;
19810;SDS011;10065;49.632;8.346;2023-06-10T01:48:06;11.77;;;8.93;;
19810;SDS011;10065;49.632;8.346;2023-06-10T01:50:34;12.00;;;7.80;;
19810;SDS011;10065;49.632;8.346;2023-06-10T01:53:01;9.70;;;8.40;;
19810;SDS011;10065;49.632;8.346;2023-06-10T01:55:32;13.30;;;9.63;;
19810;SDS011;10065;49.632;8.346;2023-06-10T01:58:00;11.37;;;8.00;;
19810;SDS011;10065;49.632;8.346;2023-06-10T02:00:28;9.83;;;8.10;;
19810;SDS011;10065;49.632;8.346;2023-06-10T02:02:56;11.63;;;8.87;;
19810;SDS011;10065;49.632;8.346;2023-06-10T02:05:24;13.30;;;8.33;;
19810;SDS011;10065;49.632;8.346;2023-06-10T02:07:52;17.40;;;8.77;;
19810;SDS011;10065;49.632;8.346;2023-06-10T02:10:20;10.83;;;8.60;;
19810;SDS011;10065;49.632;8.346;2023-06-10T02:12:49;15.47;;;9.10;;
19810;SDS011;10065;49.632;8.346;2023-06-10T02:15:17;9.10;;;8.07;;
19810;SDS011;10065;49.632;8.346;2023-06-10T02:17:45;13.20;;;8.90;;
19810;SDS011;10065;49.632;8.346;2023-06-10T02:20:13;10.80;;;8.80;;
19810;SDS011;10065;49.632;8.346;2023-06-10T02:22:40;10.27;;;8.37;;
19810;SDS011;10065;49.632;8.346;2023-06-10T02:25:09;11.40;;;8.80;;
19810;SDS011;10065;49.632;8.346;2023-06-10T02:27:37;11.17;;;8.23;;
19810;SDS011;10065;49.632;8.346;2023-06-10T02:30:07;10.57;;;8.40;;
19810;SDS011;10065;49.632;8.346;2023-06-10T02:32:36;11.30;;;8.77;;
19810;SDS011;10065;49.632;8.346;2023-06-10T02:35:04;10.27;;;8.23;;
19810;SDS011;10065;49.632;8.346;2023-06-10T02:37:33;10.37;;;8.70;;
19810;SDS011;10065;49.632;8.346;2023-06-10T02:40:01;10.67;;;8.23;;
19810;SDS011;10065;49.632;8.346;2023-06-10T02:42:29;15.63;;;8.53;;
19810;SDS011;10065;49.632;8.346;2023-06-10T02:44:57;11.03;;;8.40;;
19810;SDS011;10065;49.632;8.346;2023-06-10T02:47:26;10.33;;;7.57;;
19810;SDS011;10065;49.632;8.346;2023-06-10T02:49:54;13.53;;;8.53;;
19810;SDS011;10065;49.632;8.346;2023-06-10T02:52:22;12.53;;;8.03;;
19810;SDS011;10065;49.632;8.346;2023-06-10T02:54:50;10.20;;;8.30;;
19810;SDS011;10065;49.632;8.346;2023-06-10T02:57:17;12.37;;;8.40;;
19810;SDS011;10065;49.632;8.346;2023-06-10T02:59:45;9.93;;;8.67;;
19810;SDS011;10065;49.632;8.346;2023-06-10T03:02:13;9.50;;;7.97;;
19810;SDS011;10065;49.632;8.346;2023-06-10T03:04:43;12.13;;;8.30;;
19810;SDS011;10065;49.632;8.346;2023-06-10T03:07:11;9.40;;;8.30;;
19810;SDS011;10065;49.632;8.346;2023-06-10T03:09:39;11.70;;;8.77;;
19810;SDS011;10065;49.632;8.346;2023-06-10T03:12:10;11.50;;;8.40;;
19810;SDS011;10065;49.632;8.346;2023-06-10T03:14:38;13.70;;;8.70;;
19810;SDS011;10065;49.632;8.346;2023-06-10T03:17:06;13.87;;;8.90;;
19810;SDS011;10065;49.632;8.346;2023-06-10T03:19:34;10.20;;;8.63;;
19810;SDS011;10065;49.632;8.346;2023-06-10T03:22:09;9.53;;;8.10;;
19810;SDS011;10065;49.632;8.346;2023-06-10T03:24:38;10.30;;;8.27;;
19810;SDS011;10065;49.632;8.346;2023-06-10T03:27:06;9.70;;;7.77;;
19810;SDS011;10065;49.632;8.346;2023-06-10T03:29:35;10.03;;;7.87;;
19810;SDS011;10065;49.632;8.346;2023-06-10T03:32:04;11.70;;;7.87;;
19810;SDS011;10065;49.632;8.346;2023-06-10T03:34:32;13.50;;;8.73;;
19810;SDS011;10065;49.632;8.346;2023-06-10T03:37:00;12.20;;;9.03;;
19810;SDS011;10065;49.632;8.346;2023-06-10T03:39:29;11.37;;;8.57;;
19810;SDS011;10065;49.632;8.346;2023-06-10T03:41:57;12.07;;;8.37;;
19810;SDS011;10065;49.632;8.346;2023-06-10T03:44:25;13.97;;;8.90;;
19810;SDS011;10065;49.632;8.346;2023-06-10T03:46:54;12.80;;;8.73;;
19810;SDS011;10065;49.632;8.346;2023-06-10T03:49:22;12.73;;;8.20;;
19810;SDS011;10065;49.632;8.346;2023-06-10T03:51:53;11.07;;;8.73;;
19810;SDS011;10065;49.632;8.346;2023-06-10T03:54:21;12.70;;;9.40;;
19810;SDS011;10065;49.632;8.346;2023-06-10T03:56:50;11.33;;;7.67;;
19810;SDS011;10065;49.632;8.346;2023-06-10T03:59:18;11.77;;;8.03;;
19810;SDS011;10065;49.632;8.346;2023-06-10T04:01:46;13.23;;;9.03;;
19810;SDS011;10065;49.632;8.346;2023-06-10T04:04:14;9.67;;;7.80;;
19810;SDS011;10065;49.632;8.346;2023-06-10T04:06:43;10.03;;;8.40;;
19810;SDS011;10065;49.632;8.346;2023-06-10T04:09:11;9.83;;;8.30;;
19810;SDS011;10065;49.632;8.346;2023-06-10T04:11:39;11.17;;;8.07;;
19810;SDS011;10065;49.632;8.346;2023-06-10T04:14:08;11.10;;;7.97;;
19810;SDS011;10065;49.632;8.346;2023-06-10T04:16:37;12.23;;;8.73;;
19810;SDS011;10065;49.632;8.346;2023-06-10T04:19:05;10.57;;;8.20;;
19810;SDS011;10065;49.632;8.346;2023-06-10T04:21:33;9.57;;;8.30;;
19810;SDS011;10065;49.632;8.346;2023-06-10T04:24:02;10.47;;;8.13;;
19810;SDS011;10065;49.632;8.346;2023-06-10T04:26:31;12.40;;;9.03;;
19810;SDS011;10065;49.632;8.346;2023-06-10T04:28:59;10.27;;;8.43;;
19810;SDS011;10065;49.632;8.346;2023-06-10T04:31:29;11.43;;;8.70;;
19810;SDS011;10065;49.632;8.346;2023-06-10T04:33:58;11.10;;;8.27;;
19810;SDS011;10065;49.632;8.346;2023-06-10T04:36:27;10.40;;;8.50;;
19810;SDS011;10065;49.632;8.346;2023-06-10T04:38:55;11.17;;;8.17;;
19810;SDS011;10065;49.632;8.346;2023-06-10T04:41:23;11.07;;;8.27;;
19810;SDS011;10065;49.632;8.346;2023-06-10T04:43:52;12.77;;;8.20;;
19810;SDS011;10065;49.632;8.346;2023-06-10T04:46:19;10.50;;;8.33;;
19810;SDS011;10065;49.632;8.346;2023-06-10T04:48:49;11.17;;;8.20;;
19810;SDS011;10065;49.632;8.346;2023-06-10T04:51:16;10.27;;;8.77;;
19810;SDS011;10065;49.632;8.346;2023-06-10T04:53:45;13.27;;;9.00;;
19810;SDS011;10065;49.632;8.346;2023-06-10T04:56:13;11.80;;;9.00;;
19810;SDS011;10065;49.632;8.346;2023-06-10T04:58:42;12.70;;;9.37;;
19810;SDS011;10065;49.632;8.346;2023-06-10T05:01:10;12.90;;;9.40;;
19810;SDS011;10065;49.632;8.346;2023-06-10T05:03:37;13.40;;;9.70;;
19810;SDS011;10065;49.632;8.346;2023-06-10T05:06:07;16.70;;;11.00;;
19810;SDS011;10065;49.632;8.346;2023-06-10T05:08:34;11.37;;;9.43;;
19810;SDS011;10065;49.632;8.346;2023-06-10T05:11:03;14.93;;;9.60;;
19810;SDS011;10065;49.632;8.346;2023-06-10T05:13:30;10.50;;;8.67;;
19810;SDS011;10065;49.632;8.346;2023-06-10T05:15:58;14.53;;;9.30;;
19810;SDS011;10065;49.632;8.346;2023-06-10T05:18:26;12.53;;;9.07;;
19810;SDS011;10065;49.632;8.346;2023-06-10T05:20:54;12.20;;;9.23;;
19810;SDS011;10065;49.632;8.346;2023-06-10T05:23:23;15.23;;;8.77;;
19810;SDS011;10065;49.632;8.346;2023-06-10T05:25:51;15.97;;;8.93;;
19810;SDS011;10065;49.632;8.346;2023-06-10T05:28:19;14.80;;;8.53;;
19810;SDS011;10065;49.632;8.346;2023-06-10T05:30:47;12.07;;;8.40;;
19810;SDS011;10065;49.632;8.346;2023-06-10T05:33:14;13.23;;;8.43;;
19810;SDS011;10065;49.632;8.346;2023-06-10T05:35:42;11.07;;;8.50;;
19810;SDS011;10065;49.632;8.346;2023-06-10T05:38:10;13.13;;;8.00;;
19810;SDS011;10065;49.632;8.346;2023-06-10T05:40:39;10.87;;;8.60;;
19810;SDS011;10065;49.632;8.346;2023-06-10T05:43:07;12.07;;;7.80;;
19810;SDS011;10065;49.632;8.346;2023-06-10T05:45:35;10.33;;;8.40;;
19810;SDS011;10065;49.632;8.346;2023-06-10T05:48:04;9.63;;;7.43;;
19810;SDS011;10065;49.632;8.346;2023-06-10T05:50:33;13.10;;;8.20;;
19810;SDS011;10065;49.632;8.346;2023-06-10T05:53:05;8.57;;;7.50;;
19810;SDS011;10065;49.632;8.346;2023-06-10T05:55:34;11.23;;;7.67;;
19810;SDS011;10065;49.632;8.346;2023-06-10T05:58:03;11.87;;;8.40;;
19810;SDS011;10065;49.632;8.346;2023-06-10T06:00:31;10.43;;;7.60;;
19810;SDS011;10065;49.632;8.346;2023-06-10T06:03:01;11.37;;;8.37;;
19810;SDS011;10065;49.632;8.346;2023-06-10T06:05:29;9.97;;;7.70;;
19810;SDS011;10065;49.632;8.346;2023-06-10T06:08:01;9.70;;;7.10;;
19810;SDS011;10065;49.632;8.346;2023-06-10T06:10:29;11.73;;;7.73;;
19810;SDS011;10065;49.632;8.346;2023-06-10T06:12:57;8.77;;;6.90;;
19810;SDS011;10065;49.632;8.346;2023-06-10T06:15:27;12.87;;;7.87;;
19810;SDS011;10065;49.632;8.346;2023-06-10T06:17:55;13.53;;;8.10;;
19810;SDS011;10065;49.632;8.346;2023-06-10T06:20:23;11.47;;;8.17;;
19810;SDS011;10065;49.632;8.346;2023-06-10T06:22:51;12.52;;;7.88;;
19810;SDS011;10065;49.632;8.346;2023-06-10T06:25:18;11.05;;;7.90;;
19810;SDS011;10065;49.632;8.346;2023-06-10T06:27:46;13.27;;;7.67;;
19810;SDS011;10065;49.632;8.346;2023-06-10T06:30:14;10.38;;;8.20;;
19810;SDS011;10065;49.632;8.346;2023-06-10T06:32:43;14.32;;;8.30;;
19810;SDS011;10065;49.632;8.346;2023-06-10T06:35:11;10.93;;;7.65;;
19810;SDS011;10065;49.632;8.346;2023-06-10T06:37:39;12.13;;;8.05;;
19810;SDS011;10065;49.632;8.346;2023-06-10T06:40:07;11.40;;;7.80;;
19810;SDS011;10065;49.632;8.346;2023-06-10T06:42:35;12.38;;;7.70;;
19810;SDS011;10065;49.632;8.346;2023-06-10T06:45:03;15.95;;;7.72;;
19810;SDS011;10065;49.632;8.346;2023-06-10T06:47:32;11.15;;;7.88;;
19810;SDS011;10065;49.632;8.346;2023-06-10T06:50:02;16.23;;;8.07;;
19810;SDS011;10065;49.632;8.346;2023-06-10T06:52:30;20.27;;;8.77;;
19810;SDS011;10065;49.632;8.346;2023-06-10T06:54:57;13.25;;;7.95;;
19810;SDS011;10065;49.632;8.346;2023-06-10T06:57:25;21.65;;;8.23;;
19810;SDS011;10065;49.632;8.346;2023-06-10T06:59:53;15.95;;;8.10;;
19810;SDS011;10065;49.632;8.346;2023-06-10T07:02:20;12.70;;;7.72;;
19810;SDS011;10065;49.632;8.346;2023-06-10T07:04:48;12.10;;;8.63;;
19810;SDS011;10065;49.632;8.346;2023-06-10T07:07:18;9.82;;;7.95;;
19810;SDS011;10065;49.632;8.346;2023-06-10T07:09:46;13.63;;;8.32;;
19810;SDS011;10065;49.632;8.346;2023-06-10T07:12:13;11.68;;;7.45;;
19810;SDS011;10065;49.632;8.346;2023-06-10T07:14:41;13.43;;;7.45;;
19810;SDS011;10065;49.632;8.346;2023-06-10T07:17:09;10.40;;;8.10;;
19810;SDS011;10065;49.632;8.346;2023-06-10T07:19:37;13.52;;;7.60;;
19810;SDS011;10065;49.632;8.346;2023-06-10T07:22:05;9.52;;;7.70;;
19810;SDS011;10065;49.632;8.346;2023-06-10T07:24:34;11.98;;;7.38;;
19810;SDS011;10065;49.632;8.346;2023-06-10T07:27:02;13.23;;;7.03;;
19810;SDS011;10065;49.632;8.346;2023-06-10T07:29:32;11.82;;;7.63;;
19810;SDS011;10065;49.632;8.346;2023-06-10T07:31:59;11.75;;;7.72;;
19810;SDS011;10065;49.632;8.346;2023-06-10T07:34:27;8.85;;;7.18;;
19810;SDS011;10065;49.632;8.346;2023-06-10T07:36:55;9.73;;;7.00;;
19810;SDS011;10065;49.632;8.346;2023-06-10T07:39:22;9.57;;;7.40;;
19810;SDS011;10065;49.632;8.346;2023-06-10T07:41:51;8.27;;;6.80;;
19810;SDS011;10065;49.632;8.346;2023-06-10T07:44:21;8.57;;;7.20;;
19810;SDS011;10065;49.632;8.346;2023-06-10T07:46:49;10.38;;;6.93;;
19810;SDS011;10065;49.632;8.346;2023-06-10T07:49:17;10.05;;;6.28;;
19810;SDS011;10065;49.632;8.346;2023-06-10T07:51:45;14.48;;;6.45;;
19810;SDS011;10065;49.632;8.346;2023-06-10T07:54:13;9.07;;;6.93;;
19810;SDS011;10065;49.632;8.346;2023-06-10T07:56:43;10.52;;;7.55;;
19810;SDS011;10065;49.632;8.346;2023-06-10T07:59:13;8.23;;;6.50;;
19810;SDS011;10065;49.632;8.346;2023-06-10T08:01:41;8.02;;;6.45;;
19810;SDS011;10065;49.632;8.346;2023-06-10T08:04:09;8.55;;;6.53;;
19810;SDS011;10065;49.632;8.346;2023-06-10T08:06:37;9.93;;;6.70;;
19810;SDS011;10065;49.632;8.346;2023-06-10T08:09:05;8.18;;;6.13;;
19810;SDS011;10065;49.632;8.346;2023-06-10T08:11:33;7.97;;;6.00;;
19810;SDS011;10065;49.632;8.346;2023-06-10T08:14:01;8.07;;;6.93;;
19810;SDS011;10065;49.632;8.346;2023-06-10T08:16:30;7.80;;;6.35;;
19810;SDS011;10065;49.632;8.346;2023-06-10T08:18:58;6.85;;;5.72;;
19810;SDS011;10065;49.632;8.346;2023-06-10T08:21:25;8.75;;;6.20;;
19810;SDS011;10065;49.632;8.346;2023-06-10T08:23:54;14.10;;;6.75;;
19810;SDS011;10065;49.632;8.346;2023-06-10T08:26:23;9.85;;;6.55;;
19810;SDS011;10065;49.632;8.346;2023-06-10T08:28:51;9.60;;;6.80;;
19810;SDS011;10065;49.632;8.346;2023-06-10T08:31:19;10.05;;;6.00;;
19810;SDS011;10065;49.632;8.346;2023-06-10T08:33:48;7.70;;;6.22;;
19810;SDS011;10065;49.632;8.346;2023-06-10T08:36:15;10.23;;;6.85;;
19810;SDS011;10065;49.632;8.346;2023-06-10T08:38:43;9.38;;;5.57;;
19810;SDS011;10065;49.632;8.346;2023-06-10T08:41:12;8.23;;;5.90;;
19810;SDS011;10065;49.632;8.346;2023-06-10T08:43:45;10.27;;;5.82;;
19810;SDS011;10065;49.632;8.346;2023-06-10T08:46:21;9.30;;;5.97;;
19810;SDS011;10065;49.632;8.346;2023-06-10T08:48:51;7.60;;;5.65;;
19810;SDS011;10065;49.632;8.346;2023-06-10T08:51:22;10.90;;;6.10;;
19810;SDS011;10065;49.632;8.346;2023-06-10T08:53:53;6.57;;;5.40;;
19810;SDS011;10065;49.632;8.346;2023-06-10T08:56:28;8.35;;;5.90;;
19810;SDS011;10065;49.632;8.346;2023-06-10T08:58:58;9.52;;;5.55;;
19810;SDS011;10065;49.632;8.346;2023-06-10T09:01:26;7.40;;;5.90;;
19810;SDS011;10065;49.632;8.346;2023-06-10T09:03:57;7.78;;;5.85;;
19810;SDS011;10065;49.632;8.346;2023-06-10T09:06:26;9.95;;;6.10;;
19810;SDS011;10065;49.632;8.346;2023-06-10T09:08:55;7.32;;;5.18;;
19810;SDS011;10065;49.632;8.346;2023-06-10T09:11:23;11.65;;;5.85;;
19810;SDS011;10065;49.632;8.346;2023-06-10T09:13:51;11.35;;;6.32;;
19810;SDS011;10065;49.632;8.346;2023-06-10T09:16:19;6.97;;;5.60;;
19810;SDS011;10065;49.632;8.346;2023-06-10T09:18:46;8.50;;;5.45;;
19810;SDS011;10065;49.632;8.346;2023-06-10T09:21:22;8.80;;;6.38;;
19810;SDS011;10065;49.632;8.346;2023-06-10T09:23:51;11.75;;;6.50;;
19810;SDS011;10065;49.632;8.346;2023-06-10T09:26:19;9.05;;;6.28;;
19810;SDS011;10065;49.632;8.346;2023-06-10T09:28:47;7.78;;;6.15;;
19810;SDS011;10065;49.632;8.346;2023-06-10T09:31:15;7.78;;;6.80;;
19810;SDS011;10065;49.632;8.346;2023-06-10T09:33:46;11.23;;;7.00;;
19810;SDS011;10065;49.632;8.346;2023-06-10T09:36:20;9.18;;;6.78;;
19810;SDS011;10065;49.632;8.346;2023-06-10T09:38:50;11.25;;;6.90;;
19810;SDS011;10065;49.632;8.346;2023-06-10T09:41:18;14.30;;;6.72;;
19810;SDS011;10065;49.632;8.346;2023-06-10T09:43:46;9.60;;;6.97;;
19810;SDS011;10065;49.632;8.346;2023-06-10T09:46:15;8.10;;;6.45;;
19810;SDS011;10065;49.632;8.346;2023-06-10T09:48:44;12.18;;;6.88;;
19810;SDS011;10065;49.632;8.346;2023-06-10T09:51:13;13.57;;;6.75;;
19810;SDS011;10065;49.632;8.346;2023-06-10T09:53:44;8.63;;;6.68;;
19810;SDS011;10065;49.632;8.346;2023-06-10T09:56:15;10.43;;;6.47;;
19810;SDS011;10065;49.632;8.346;2023-06-10T09:58:44;10.15;;;6.63;;
19810;SDS011;10065;49.632;8.346;2023-06-10T10:01:13;9.48;;;6.25;;
19810;SDS011;10065;49.632;8.346;2023-06-10T10:03:43;8.77;;;6.78;;
19810;SDS011;10065;49.632;8.346;2023-06-10T10:06:14;8.63;;;5.97;;
19810;SDS011;10065;49.632;8.346;2023-06-10T10:08:45;7.22;;;6.50;;
19810;SDS011;10065;49.632;8.346;2023-06-10T10:11:14;11.35;;;7.03;;
19810;SDS011;10065;49.632;8.346;2023-06-10T10:13:43;12.70;;;6.00;;
19810;SDS011;10065;49.632;8.346;2023-06-10T10:16:14;6.93;;;5.43;;
19810;SDS011;10065;49.632;8.346;2023-06-10T10:18:45;9.35;;;5.40;;
19810;SDS011;10065;49.632;8.346;2023-06-10T10:21:16;7.80;;;5.10;;
19810;SDS011;10065;49.632;8.346;2023-06-10T10:23:53;6.88;;;4.88;;
19810;SDS011;10065;49.632;8.346;2023-06-10T10:26:25;7.28;;;5.40;;
19810;SDS011;10065;49.632;8.346;2023-06-10T10:28:58;9.52;;;5.65;;
19810;SDS011;10065;49.632;8.346;2023-06-10T10:31:32;6.72;;;5.40;;
19810;SDS011;10065;49.632;8.346;2023-06-10T10:34:04;9.48;;;5.35;;
19810;SDS011;10065;49.632;8.346;2023-06-10T10:36:35;7.32;;;4.88;;
19810;SDS011;10065;49.632;8.346;2023-06-10T10:39:05;7.75;;;5.13;;
19810;SDS011;10065;49.632;8.346;2023-06-10T10:41:34;5.45;;;4.93;;
19810;SDS011;10065;49.632;8.346;2023-06-10T10:44:04;6.80;;;4.70;;
19810;SDS011;10065;49.632;8.346;2023-06-10T10:46:41;7.18;;;4.65;;
19810;SDS011;10065;49.632;8.346;2023-06-10T10:49:10;9.25;;;4.78;;
19810;SDS011;10065;49.632;8.346;2023-06-10T10:51:53;6.75;;;4.65;;
19810;SDS011;10065;49.632;8.346;2023-06-10T10:54:29;7.47;;;4.18;;
19810;SDS011;10065;49.632;8.346;2023-06-10T10:57:11;8.00;;;5.05;;
19810;SDS011;10065;49.632;8.346;2023-06-10T10:59:54;6.28;;;4.13;;
19810;SDS011;10065;49.632;8.346;2023-06-10T11:02:33;6.45;;;4.63;;
19810;SDS011;10065;49.632;8.346;2023-06-10T11:05:05;6.45;;;4.90;;
19810;SDS011;10065;49.632;8.346;2023-06-10T11:07:35;6.25;;;4.10;;
19810;SDS011;10065;49.632;8.346;2023-06-10T11:10:07;6.80;;;4.65;;
19810;SDS011;10065;49.632;8.346;2023-06-10T11:15:25;5.68;;;4.55;;
19810;SDS011;10065;49.632;8.346;2023-06-10T11:20:53;4.97;;;4.47;;
19810;SDS011;10065;49.632;8.346;2023-06-10T11:23:34;7.90;;;4.45;;
19810;SDS011;10065;49.632;8.346;2023-06-10T11:26:20;10.10;;;5.45;;
19810;SDS011;10065;49.632;8.346;2023-06-10T11:29:03;10.55;;;4.90;;
19810;SDS011;10065;49.632;8.346;2023-06-10T11:31:41;6.63;;;4.70;;
19810;SDS011;10065;49.632;8.346;2023-06-10T11:34:11;5.18;;;4.57;;
19810;SDS011;10065;49.632;8.346;2023-06-10T11:36:40;5.60;;;4.50;;
19810;SDS011;10065;49.632;8.346;2023-06-10T11:39:12;5.95;;;4.70;;
19810;SDS011;10065;49.632;8.346;2023-06-10T11:41:41;6.03;;;4.70;;
19810;SDS011;10065;49.632;8.346;2023-06-10T11:44:09;7.82;;;4.70;;
19810;SDS011;10065;49.632;8.346;2023-06-10T11:46:40;7.70;;;5.45;;
19810;SDS011;10065;49.632;8.346;2023-06-10T11:49:09;7.38;;;5.28;;
19810;SDS011;10065;49.632;8.346;2023-06-10T11:51:39;12.00;;;4.97;;
19810;SDS011;10065;49.632;8.346;2023-06-10T11:54:15;7.43;;;4.90;;
19810;SDS011;10065;49.632;8.346;2023-06-10T11:56:45;6.60;;;4.43;;
19810;SDS011;10065;49.632;8.346;2023-06-10T11:59:13;7.70;;;4.90;;
19810;SDS011;10065;49.632;8.346;2023-06-10T12:01:42;6.40;;;5.10;;
19810;SDS011;10065;49.632;8.346;2023-06-10T12:04:12;8.07;;;5.28;;
19810;SDS011;10065;49.632;8.346;2023-06-10T12:06:42;5.43;;;4.32;;
19810;SDS011;10065;49.632;8.346;2023-06-10T12:09:13;6.32;;;4.75;;
19810;SDS011;10065;49.632;8.346;2023-06-10T12:11:54;6.53;;;4.82;;
19810;SDS011;10065;49.632;8.346;2023-06-10T12:17:20;8.50;;;4.95;;
19810;SDS011;10065;49.632;8.346;2023-06-10T12:19:49;8.15;;;4.90;;
19810;SDS011;10065;49.632;8.346;2023-06-10T12:22:17;9.18;;;5.20;;
19810;SDS011;10065;49.632;8.346;2023-06-10T12:24:46;8.88;;;5.15;;
19810;SDS011;10065;49.632;8.346;2023-06-10T12:27:28;5.60;;;4.78;;
19810;SDS011;10065;49.632;8.346;2023-06-10T12:29:57;5.18;;;4.32;;
19810;SDS011;10065;49.632;8.346;2023-06-10T12:32:36;7.70;;;4.40;;
19810;SDS011;10065;49.632;8.346;2023-06-10T12:35:06;5.82;;;4.20;;
19810;SDS011;10065;49.632;8.346;2023-06-10T12:37:36;5.40;;;3.97;;
19810;SDS011;10065;49.632;8.346;2023-06-10T12:40:08;4.68;;;3.60;;
19810;SDS011;10065;49.632;8.346;2023-06-10T12:42:38;8.20;;;3.85;;
19810;SDS011;10065;49.632;8.346;2023-06-10T12:45:06;5.65;;;3.88;;
19810;SDS011;10065;49.632;8.346;2023-06-10T12:47:37;4.95;;;3.75;;
19810;SDS011;10065;49.632;8.346;2023-06-10T12:50:06;7.53;;;3.92;;
19810;SDS011;10065;49.632;8.346;2023-06-10T12:52:35;4.78;;;3.50;;
19810;SDS011;10065;49.632;8.346;2023-06-10T12:55:04;4.40;;;3.65;;
19810;SDS011;10065;49.632;8.346;2023-06-10T12:57:33;5.68;;;3.80;;
19810;SDS011;10065;49.632;8.346;2023-06-10T13:00:02;5.55;;;3.03;;
19810;SDS011;10065;49.632;8.346;2023-06-10T13:02:35;5.97;;;4.30;;
19810;SDS011;10065;49.632;8.346;2023-06-10T13:05:02;7.50;;;3.78;;
19810;SDS011;10065;49.632;8.346;2023-06-10T13:07:31;4.65;;;3.47;;
19810;SDS011;10065;49.632;8.346;2023-06-10T13:09:59;5.53;;;3.75;;
19810;SDS011;10065;49.632;8.346;2023-06-10T13:12:27;8.35;;;3.70;;
19810;SDS011;10065;49.632;8.346;2023-06-10T13:15:13;4.40;;;3.38;;
19810;SDS011;10065;49.632;8.346;2023-06-10T13:17:42;7.05;;;4.00;;
19810;SDS011;10065;49.632;8.346;2023-06-10T13:20:10;7.55;;;3.80;;
19810;SDS011;10065;49.632;8.346;2023-06-10T13:22:38;6.25;;;3.58;;
19810;SDS011;10065;49.632;8.346;2023-06-10T13:25:06;4.65;;;3.70;;
19810;SDS011;10065;49.632;8.346;2023-06-10T13:27:36;8.35;;;3.78;;
19810;SDS011;10065;49.632;8.346;2023-06-10T13:30:05;6.93;;;3.85;;
19810;SDS011;10065;49.632;8.346;2023-06-10T13:32:36;7.18;;;3.80;;
19810;SDS011;10065;49.632;8.346;2023-06-10T13:35:04;6.53;;;3.70;;
19810;SDS011;10065;49.632;8.346;2023-06-10T13:37:34;5.82;;;4.00;;
19810;SDS011;10065;49.632;8.346;2023-06-10T13:40:02;5.43;;;3.83;;
19810;SDS011;10065;49.632;8.346;2023-06-10T13:42:31;4.68;;;3.35;;
19810;SDS011;10065;49.632;8.346;2023-06-10T13:44:59;6.50;;;3.45;;
19810;SDS011;10065;49.632;8.346;2023-06-10T13:47:27;7.13;;;3.78;;
19810;SDS011;10065;49.632;8.346;2023-06-10T13:49:56;4.63;;;3.38;;
19810;SDS011;10065;49.632;8.346;2023-06-10T13:52:24;5.50;;;3.40;;
19810;SDS011;10065;49.632;8.346;2023-06-10T13:54:52;4.60;;;3.33;;
19810;SDS011;10065;49.632;8.346;2023-06-10T13:57:20;8.90;;;4.03;;
19810;SDS011;10065;49.632;8.346;2023-06-10T13:59:47;5.63;;;3.50;;
19810;SDS011;10065;49.632;8.346;2023-06-10T14:02:15;5.03;;;3.72;;
19810;SDS011;10065;49.632;8.346;2023-06-10T14:04:43;5.90;;;3.20;;
19810;SDS011;10065;49.632;8.346;2023-06-10T14:07:12;4.25;;;3.13;;
19810;SDS011;10065;49.632;8.346;2023-06-10T14:09:40;6.15;;;3.58;;
19810;SDS011;10065;49.632;8.346;2023-06-10T14:12:08;6.63;;;3.47;;
19810;SDS011;10065;49.632;8.346;2023-06-10T14:14:37;5.43;;;3.50;;
19810;SDS011;10065;49.632;8.346;2023-06-10T14:17:05;5.65;;;3.90;;
19810;SDS011;10065;49.632;8.346;2023-06-10T14:19:33;6.05;;;3.90;;
19810;SDS011;10065;49.632;8.346;2023-06-10T14:22:01;6.70;;;4.18;;
19810;SDS011;10065;49.632;8.346;2023-06-10T14:24:34;3.97;;;3.28;;
19810;SDS011;10065;49.632;8.346;2023-06-10T14:27:02;9.07;;;3.15;;
19810;SDS011;10065;49.632;8.346;2023-06-10T14:29:30;6.63;;;3.70;;
19810;SDS011;10065;49.632;8.346;2023-06-10T14:32:00;6.38;;;3.75;;
19810;SDS011;10065;49.632;8.346;2023-06-10T14:34:30;10.70;;;3.95;;
19810;SDS011;10065;49.632;8.346;2023-06-10T14:37:00;4.78;;;3.13;;
19810;SDS011;10065;49.632;8.346;2023-06-10T14:39:30;6.55;;;3.75;;
19810;SDS011;10065;49.632;8.346;2023-06-10T14:41:59;4.32;;;3.20;;
19810;SDS011;10065;49.632;8.346;2023-06-10T14:44:26;5.57;;;3.78;;
19810;SDS011;10065;49.632;8.346;2023-06-10T14:46:54;6.32;;;3.67;;
19810;SDS011;10065;49.632;8.346;2023-06-10T14:49:22;5.95;;;3.85;;
19810;SDS011;10065;49.632;8.346;2023-06-10T14:51:50;6.15;;;3.72;;
19810;SDS011;10065;49.632;8.346;2023-06-10T14:54:17;4.70;;;3.55;;
19810;SDS011;10065;49.632;8.346;2023-06-10T14:56:45;6.22;;;3.60;;
19810;SDS011;10065;49.632;8.346;2023-06-10T14:59:14;5.95;;;3.55;;
19810;SDS011;10065;49.632;8.346;2023-06-10T15:01:42;5.07;;;3.53;;